createdAt,value
2023-07-21T00:00:20.423Z,37.05
2023-07-21T00:02:46.920Z,37.09
2023-07-21T00:05:13.350Z,37.16
2023-07-21T00:07:39.750Z,37.17
2023-07-21T00:10:06.177Z,37.15
2023-07-21T00:12:32.619Z,36.92
2023-07-21T00:14:59.070Z,37.08
2023-07-21T00:17:25.562Z,37.13
2023-07-21T00:19:51.975Z,37.46
2023-07-21T00:22:18.434Z,37.61
2023-07-21T00:24:44.907Z,37.65
2023-07-21T00:27:11.347Z,37.47
2023-07-21T00:29:37.778Z,37.61
2023-07-21T00:32:04.173Z,37.84
2023-07-21T00:34:30.564Z,37.57
2023-07-21T00:36:56.958Z,37.27
2023-07-21T00:39:23.418Z,37.36
2023-07-21T00:41:49.803Z,37.48
2023-07-21T00:44:16.210Z,37.45
2023-07-21T00:46:42.719Z,37.19
2023-07-21T00:49:09.149Z,37.18
2023-07-21T00:51:35.522Z,37.12
2023-07-21T00:54:01.927Z,37.23
2023-07-21T00:56:28.335Z,37.17
2023-07-21T00:58:54.765Z,37.38
2023-07-21T01:01:21.288Z,37.27
2023-07-21T01:03:47.709Z,37.52
2023-07-21T01:06:14.136Z,37.48
2023-07-21T01:08:40.568Z,37.41
2023-07-21T01:11:06.935Z,37.19
2023-07-21T01:13:33.338Z,37.05
2023-07-21T01:15:59.754Z,37.59
2023-07-21T01:18:26.192Z,37.25
2023-07-21T01:20:52.600Z,37.04
2023-07-21T01:23:18.983Z,37.25
2023-07-21T01:25:45.436Z,37.47
2023-07-21T01:28:11.842Z,37.86
2023-07-21T01:30:38.242Z,38.31
2023-07-21T01:33:04.702Z,38.63
2023-07-21T01:35:31.120Z,38.94
2023-07-21T01:37:57.503Z,39.10
2023-07-21T01:40:23.896Z,38.82
2023-07-21T01:42:50.374Z,38.64
2023-07-21T01:45:16.879Z,38.16
2023-07-21T01:47:43.310Z,37.88
2023-07-21T01:50:09.752Z,37.80
2023-07-21T01:52:36.154Z,38.02
2023-07-21T01:55:02.590Z,38.17
2023-07-21T01:57:28.973Z,38.28
2023-07-21T01:59:55.382Z,38.59
2023-07-21T02:02:21.773Z,38.43
2023-07-21T02:04:48.150Z,38.76
2023-07-21T02:07:14.548Z,38.94
2023-07-21T02:09:40.964Z,39.79
2023-07-21T02:12:07.360Z,39.96
2023-07-21T02:14:33.779Z,39.83
2023-07-21T02:17:00.214Z,39.35
2023-07-21T02:19:26.655Z,39.21
2023-07-21T02:21:53.071Z,39.39
2023-07-21T02:24:19.552Z,39.61
2023-07-21T02:26:46.043Z,39.63
2023-07-21T02:29:12.452Z,39.43
2023-07-21T02:31:38.902Z,39.56
2023-07-21T02:34:05.301Z,40.15
2023-07-21T02:36:31.733Z,40.34
2023-07-21T02:38:58.129Z,40.41
2023-07-21T02:41:24.524Z,39.86
2023-07-21T02:43:50.939Z,39.75
2023-07-21T02:46:17.384Z,39.19
2023-07-21T02:48:43.878Z,39.08
2023-07-21T02:51:10.281Z,38.92
2023-07-21T02:53:36.674Z,38.70
2023-07-21T02:56:03.100Z,38.83
2023-07-21T02:58:29.497Z,38.51
2023-07-21T03:00:55.909Z,38.62
2023-07-21T03:03:22.565Z,38.83
2023-07-21T03:05:49.002Z,39.06
2023-07-21T03:08:15.394Z,39.14
2023-07-21T03:10:41.798Z,38.98
2023-07-21T03:13:08.225Z,38.95
2023-07-21T03:15:34.616Z,38.88
2023-07-21T03:18:01.066Z,39.01
2023-07-21T03:20:27.487Z,39.15
2023-07-21T03:22:53.976Z,39.47
2023-07-21T03:25:20.414Z,39.58
2023-07-21T03:27:46.841Z,39.74
2023-07-21T03:30:13.234Z,39.88
2023-07-21T03:32:39.730Z,39.97
2023-07-21T03:35:06.219Z,39.83
2023-07-21T03:37:32.692Z,39.95
2023-07-21T03:39:59.205Z,40.27
2023-07-21T03:42:25.630Z,40.58
2023-07-21T03:44:52.057Z,40.66
2023-07-21T03:47:18.545Z,40.75
2023-07-21T03:49:45.032Z,40.60
2023-07-21T03:52:11.425Z,40.32
2023-07-21T03:54:37.833Z,40.24
2023-07-21T03:57:04.228Z,40.10
2023-07-21T03:59:30.629Z,40.21
2023-07-21T04:01:57.044Z,40.38
2023-07-21T04:04:23.532Z,40.74
2023-07-21T04:06:50.052Z,40.95
2023-07-21T04:09:16.454Z,40.70
2023-07-21T04:11:42.847Z,40.43
2023-07-21T04:14:09.240Z,43.09
2023-07-21T04:16:35.655Z,44.11
2023-07-21T04:19:02.131Z,43.87
2023-07-21T04:21:28.607Z,43.93
2023-07-21T04:23:55.102Z,43.75
2023-07-21T04:26:21.490Z,43.49
2023-07-21T04:28:47.888Z,43.71
2023-07-21T04:31:14.365Z,43.63
2023-07-21T04:33:40.799Z,44.06
2023-07-21T04:36:07.173Z,44.90
2023-07-21T04:38:33.552Z,44.89
2023-07-21T04:40:59.942Z,44.99
2023-07-21T04:43:26.321Z,44.69
2023-07-21T04:45:52.734Z,45.42
2023-07-21T04:48:19.126Z,45.21
2023-07-21T04:50:45.510Z,45.09
2023-07-21T04:53:11.887Z,44.72
2023-07-21T04:55:38.269Z,44.50
2023-07-21T04:58:04.648Z,44.45
2023-07-21T05:00:31.042Z,44.73
2023-07-21T05:02:57.465Z,44.63
2023-07-21T05:05:23.922Z,44.63
2023-07-21T05:07:50.300Z,44.57
2023-07-21T05:10:16.696Z,44.63
2023-07-21T05:12:43.076Z,44.63
2023-07-21T05:15:09.453Z,44.76
2023-07-21T05:17:35.950Z,44.08
2023-07-21T05:20:02.415Z,43.60
2023-07-21T05:22:28.825Z,44.44
2023-07-21T05:24:55.231Z,44.39
2023-07-21T05:27:21.630Z,43.70
2023-07-21T05:29:48.030Z,43.80
2023-07-21T05:32:14.476Z,43.82
2023-07-21T05:34:40.960Z,43.76
2023-07-21T05:37:07.358Z,43.88
2023-07-21T05:39:33.764Z,44.52
2023-07-21T05:42:00.162Z,44.63
2023-07-21T05:44:26.559Z,44.99
2023-07-21T05:46:52.994Z,45.06
2023-07-21T05:49:19.392Z,44.67
2023-07-21T05:51:45.860Z,45.33
2023-07-21T05:54:12.279Z,45.44
2023-07-21T05:56:38.662Z,45.24
2023-07-21T05:59:05.039Z,45.12
2023-07-21T06:01:31.496Z,45.64
2023-07-21T06:03:58.029Z,45.73
2023-07-21T06:06:24.744Z,46.35
2023-07-21T06:08:51.399Z,46.27
2023-07-21T06:11:17.801Z,45.81
2023-07-21T06:13:44.222Z,45.89
2023-07-21T06:16:10.606Z,46.98
2023-07-21T06:18:37.009Z,46.83
2023-07-21T06:21:03.418Z,45.85
2023-07-21T06:23:29.842Z,46.52
2023-07-21T06:25:56.265Z,46.99
2023-07-21T06:28:22.690Z,46.85
2023-07-21T06:30:49.575Z,48.60
2023-07-21T06:33:16.052Z,48.39
2023-07-21T06:35:42.436Z,49.99
2023-07-21T06:38:08.849Z,48.50
2023-07-21T06:40:35.268Z,50.25
2023-07-21T06:43:01.695Z,51.51
2023-07-21T06:45:28.129Z,51.61
2023-07-21T06:47:54.725Z,51.31
2023-07-21T06:50:21.356Z,51.28
2023-07-21T06:52:48.257Z,54.43
2023-07-21T06:55:15.696Z,53.84
2023-07-21T06:57:42.117Z,53.56
2023-07-21T07:00:08.509Z,52.66
2023-07-21T07:02:34.941Z,53.23
2023-07-21T07:05:01.419Z,52.83
2023-07-21T07:07:27.837Z,53.54
2023-07-21T07:09:54.227Z,54.56
2023-07-21T07:12:20.604Z,54.58
2023-07-21T07:14:46.994Z,54.96
2023-07-21T07:17:13.405Z,56.08
2023-07-21T07:19:39.829Z,55.34
2023-07-21T07:22:06.233Z,55.64
2023-07-21T07:24:32.689Z,56.12
2023-07-21T07:26:59.110Z,56.42
2023-07-21T07:29:25.690Z,56.79
2023-07-21T07:31:52.119Z,56.28
2023-07-21T07:34:18.571Z,56.71
2023-07-21T07:36:45.000Z,56.89
2023-07-21T07:39:11.423Z,57.22
2023-07-21T07:41:37.893Z,57.39
2023-07-21T07:44:04.384Z,55.68
2023-07-21T07:46:30.797Z,55.00
2023-07-21T07:48:57.263Z,55.82
2023-07-21T07:51:23.976Z,56.99
2023-07-21T07:53:50.633Z,57.62
2023-07-21T07:56:17.034Z,58.71
2023-07-21T07:58:43.427Z,57.33
2023-07-21T08:01:09.888Z,56.24
2023-07-21T08:03:36.543Z,55.71
2023-07-21T08:06:03.008Z,56.10
2023-07-21T08:08:29.449Z,56.28
2023-07-21T08:10:55.855Z,55.40
2023-07-21T08:13:22.247Z,56.74
2023-07-21T08:15:48.681Z,55.61
2023-07-21T08:18:15.202Z,53.66
2023-07-21T08:20:41.621Z,53.64
2023-07-21T08:23:23.314Z,53.65
2023-07-21T08:25:54.968Z,53.54
2023-07-21T08:28:21.351Z,53.71
2023-07-21T08:30:57.454Z,53.94
2023-07-21T08:33:25.042Z,54.26
2023-07-21T08:35:51.486Z,54.01
2023-07-21T08:38:17.926Z,54.04
2023-07-21T08:40:44.320Z,54.57
2023-07-21T08:43:10.717Z,55.36
2023-07-21T08:45:37.206Z,56.03
2023-07-21T08:48:03.676Z,55.31
2023-07-21T08:50:30.072Z,55.61
2023-07-21T08:52:56.489Z,55.24
2023-07-21T08:55:22.868Z,55.62
2023-07-21T08:57:49.287Z,54.79
2023-07-21T09:00:15.685Z,54.17
2023-07-21T09:02:42.117Z,54.40
2023-07-21T09:05:08.585Z,54.02
2023-07-21T09:07:35.052Z,54.27
2023-07-21T09:10:01.537Z,54.05
2023-07-21T09:12:28.011Z,53.81
2023-07-21T09:14:54.443Z,53.64
2023-07-21T09:17:20.860Z,52.47
2023-07-21T09:19:47.287Z,51.39
2023-07-21T09:22:13.663Z,53.08
2023-07-21T09:24:40.159Z,53.04
2023-07-21T09:27:06.569Z,52.95
2023-07-21T09:29:32.968Z,52.10
2023-07-21T09:31:59.352Z,51.75
2023-07-21T09:34:25.748Z,51.89
2023-07-21T09:36:52.126Z,51.89
2023-07-21T09:39:18.538Z,51.95
2023-07-21T09:41:46.061Z,52.65
2023-07-21T09:44:12.453Z,53.10
2023-07-21T09:46:38.850Z,53.27
2023-07-21T09:49:05.264Z,53.13
2023-07-21T09:51:31.665Z,53.79
2023-07-21T09:53:58.055Z,54.49
2023-07-21T09:56:24.702Z,53.80
2023-07-21T09:58:51.358Z,53.07
2023-07-21T10:01:17.875Z,53.89
2023-07-21T10:03:44.513Z,53.87
2023-07-21T10:06:10.937Z,53.65
2023-07-21T10:08:37.476Z,53.31
2023-07-21T10:11:03.968Z,50.94
2023-07-21T10:13:30.377Z,51.68
2023-07-21T10:15:56.787Z,51.63
2023-07-21T10:18:23.254Z,50.83
2023-07-21T10:20:49.726Z,51.90
2023-07-21T10:23:16.116Z,52.06
2023-07-21T10:25:42.518Z,52.51
2023-07-21T10:28:11.028Z,50.59
2023-07-21T10:30:38.789Z,50.91
2023-07-21T10:33:05.299Z,51.43
2023-07-21T10:35:31.785Z,51.76
2023-07-21T10:37:58.178Z,51.49
2023-07-21T10:40:24.557Z,51.71
2023-07-21T10:42:50.995Z,51.77
2023-07-21T10:45:17.407Z,51.92
2023-07-21T10:47:43.889Z,51.93
2023-07-21T10:50:10.329Z,51.99
2023-07-21T10:52:36.719Z,51.80
2023-07-21T10:55:03.134Z,50.95
2023-07-21T10:57:29.519Z,50.76
2023-07-21T10:59:55.910Z,50.66
2023-07-21T11:02:22.349Z,51.94
2023-07-21T11:04:48.833Z,52.05
2023-07-21T11:07:15.220Z,52.12
2023-07-21T11:09:41.645Z,52.17
2023-07-21T11:12:08.047Z,50.10
2023-07-21T11:14:34.462Z,50.81
2023-07-21T11:17:01.024Z,50.59
2023-07-21T11:19:27.609Z,50.61
2023-07-21T11:21:56.167Z,50.59
2023-07-21T11:24:24.567Z,50.33
2023-07-21T11:26:50.969Z,50.78
2023-07-21T11:29:17.345Z,50.55
2023-07-21T11:31:43.800Z,50.47
2023-07-21T11:34:10.322Z,49.70
2023-07-21T11:36:36.738Z,49.74
2023-07-21T11:39:03.155Z,49.29
2023-07-21T11:41:29.531Z,48.99
2023-07-21T11:43:55.939Z,47.63
2023-07-21T11:46:22.405Z,47.78
2023-07-21T11:48:48.827Z,47.98
2023-07-21T11:51:15.253Z,46.80
2023-07-21T11:53:41.672Z,46.20
2023-07-21T11:56:08.101Z,45.94
2023-07-21T11:58:34.516Z,45.83
2023-07-21T12:01:00.907Z,44.55
2023-07-21T12:03:27.400Z,44.05
2023-07-21T12:05:53.882Z,44.76
2023-07-21T12:08:20.291Z,43.37
2023-07-21T12:10:46.682Z,43.74
2023-07-21T12:13:13.083Z,43.76
2023-07-21T12:15:39.477Z,42.14
2023-07-21T12:18:06.000Z,43.21
2023-07-21T12:20:32.465Z,43.14
2023-07-21T12:22:58.894Z,43.11
2023-07-21T12:25:25.312Z,42.85
2023-07-21T12:27:51.818Z,42.43
2023-07-21T12:30:18.337Z,43.03
2023-07-21T12:32:44.850Z,42.58
2023-07-21T12:35:11.352Z,42.52
2023-07-21T12:37:37.756Z,43.43
2023-07-21T12:40:04.143Z,42.54
2023-07-21T12:42:30.556Z,44.23
2023-07-21T12:44:56.980Z,45.86
2023-07-21T12:47:23.439Z,45.20
2023-07-21T12:49:49.892Z,45.02
2023-07-21T12:52:16.289Z,44.73
2023-07-21T12:54:44.753Z,45.15
2023-07-21T12:57:12.450Z,45.04
2023-07-21T12:59:38.857Z,44.49
2023-07-21T13:02:05.431Z,44.59
2023-07-21T13:04:32.075Z,44.41
2023-07-21T13:06:58.546Z,43.39
2023-07-21T13:09:24.979Z,41.95
2023-07-21T13:11:53.017Z,40.37
2023-07-21T13:14:20.320Z,40.13
2023-07-21T13:16:46.823Z,41.45
2023-07-21T13:19:13.313Z,40.76
2023-07-21T13:21:39.752Z,39.99
2023-07-21T13:24:06.165Z,39.39
2023-07-21T13:26:32.570Z,39.56
2023-07-21T13:28:58.984Z,41.05
2023-07-21T13:31:25.472Z,40.64
2023-07-21T13:33:51.878Z,40.92
2023-07-21T13:36:18.274Z,39.41
2023-07-21T13:38:44.640Z,38.69
2023-07-21T13:41:11.049Z,38.94
2023-07-21T13:43:37.447Z,39.28
2023-07-21T13:46:03.902Z,40.50
2023-07-21T13:48:30.427Z,40.00
2023-07-21T13:50:56.899Z,40.21
2023-07-21T13:53:23.304Z,40.21
2023-07-21T13:55:49.694Z,40.25
2023-07-21T13:58:16.093Z,39.53
2023-07-21T14:00:42.497Z,40.01
2023-07-21T14:03:09.264Z,40.49
2023-07-21T14:05:35.769Z,40.23
2023-07-21T14:08:02.156Z,40.04
2023-07-21T14:10:28.528Z,39.80
2023-07-21T14:12:54.898Z,34.98
2023-07-21T14:15:21.307Z,35.80
2023-07-21T14:17:47.719Z,36.61
2023-07-21T14:20:14.111Z,35.81
2023-07-21T14:22:40.508Z,36.64
2023-07-21T14:25:06.896Z,35.87
2023-07-21T14:27:33.327Z,38.54
2023-07-21T14:29:59.780Z,39.98
2023-07-21T14:32:26.234Z,41.64
2023-07-21T14:34:52.864Z,39.70
2023-07-21T14:37:19.252Z,40.66
2023-07-21T14:39:45.625Z,40.56
2023-07-21T14:42:12.019Z,41.20
2023-07-21T14:44:38.405Z,38.67
2023-07-21T14:47:04.885Z,39.46
2023-07-21T14:49:31.301Z,38.54
2023-07-21T14:51:57.690Z,40.68
2023-07-21T14:54:24.080Z,41.18
2023-07-21T14:56:50.472Z,40.90
2023-07-21T14:59:16.850Z,41.72
2023-07-21T15:01:43.241Z,40.98
2023-07-21T15:04:09.646Z,41.74
2023-07-21T15:06:36.064Z,40.75
2023-07-21T15:09:02.521Z,40.96
2023-07-21T15:11:28.966Z,40.24
2023-07-21T15:13:55.349Z,40.73
2023-07-21T15:16:21.785Z,40.18
2023-07-21T15:18:48.302Z,40.02
2023-07-21T15:21:14.691Z,40.47
2023-07-21T15:23:41.151Z,40.41
2023-07-21T15:26:07.553Z,39.79
2023-07-21T15:28:33.978Z,39.78
2023-07-21T15:31:00.442Z,40.21
2023-07-21T15:33:26.888Z,38.11
2023-07-21T15:35:53.325Z,39.82
2023-07-21T15:38:19.719Z,37.98
2023-07-21T15:40:46.111Z,37.88
2023-07-21T15:43:12.532Z,37.41
2023-07-21T15:45:38.950Z,37.07
2023-07-21T15:48:05.435Z,37.05
2023-07-21T15:50:31.839Z,36.64
2023-07-21T15:52:58.264Z,37.05
2023-07-21T15:55:24.629Z,36.75
2023-07-21T15:57:51.010Z,36.68
2023-07-21T16:00:17.835Z,37.07
2023-07-21T16:02:44.438Z,36.90
2023-07-21T16:05:10.926Z,37.57
2023-07-21T16:07:37.338Z,37.83
2023-07-21T16:10:03.735Z,36.96
2023-07-21T16:12:30.209Z,37.28
2023-07-21T16:14:56.651Z,37.12
2023-07-21T16:17:23.071Z,36.82
2023-07-21T16:19:49.512Z,36.60
2023-07-21T16:22:15.905Z,35.85
2023-07-21T16:24:42.399Z,36.78
2023-07-21T16:27:08.798Z,36.76
2023-07-21T16:29:35.180Z,36.86
2023-07-21T16:32:01.668Z,37.38
2023-07-21T16:34:28.111Z,36.97
2023-07-21T16:36:54.489Z,36.81
2023-07-21T16:39:20.911Z,36.63
2023-07-21T16:41:47.280Z,37.18
2023-07-21T16:44:13.683Z,37.70
2023-07-21T16:46:40.124Z,40.38
2023-07-21T16:49:06.571Z,43.33
2023-07-21T16:51:32.980Z,45.57
2023-07-21T16:53:59.371Z,46.86
2023-07-21T16:56:25.745Z,48.65
2023-07-21T16:58:52.121Z,49.42
2023-07-21T17:01:18.536Z,50.82
2023-07-21T17:03:45.076Z,51.83
2023-07-21T17:06:11.589Z,52.09
2023-07-21T17:08:38.006Z,53.14
2023-07-21T17:11:04.385Z,52.95
2023-07-21T17:13:30.775Z,52.87
2023-07-21T17:15:57.219Z,53.29
2023-07-21T17:18:23.641Z,53.40
2023-07-21T17:20:50.039Z,53.30
2023-07-21T17:23:16.436Z,53.05
2023-07-21T17:25:42.803Z,53.26
2023-07-21T17:28:09.792Z,52.88
2023-07-21T17:30:36.199Z,53.59
2023-07-21T17:33:02.652Z,53.99
2023-07-21T17:35:29.099Z,53.87
2023-07-21T17:37:55.497Z,54.35
2023-07-21T17:40:21.902Z,54.60
2023-07-21T17:42:48.299Z,54.35
2023-07-21T17:45:14.691Z,54.06
2023-07-21T17:47:41.159Z,54.09
2023-07-21T17:50:07.637Z,54.12
2023-07-21T17:52:34.098Z,54.66
2023-07-21T17:55:00.573Z,55.02
2023-07-21T17:57:26.979Z,54.19
2023-07-21T17:59:53.419Z,53.62
2023-07-21T18:02:19.826Z,55.23
2023-07-21T18:04:46.255Z,66.29
2023-07-21T18:07:12.719Z,70.80
2023-07-21T18:09:39.128Z,72.10
2023-07-21T18:12:05.605Z,63.89
2023-07-21T18:14:32.880Z,62.25
2023-07-21T18:16:59.274Z,60.97
2023-07-21T18:19:25.670Z,66.46
2023-07-21T18:21:52.076Z,60.48
2023-07-21T18:24:18.495Z,58.81
2023-07-21T18:26:44.953Z,58.41
2023-07-21T18:29:11.331Z,58.90
2023-07-21T18:31:37.758Z,57.05
2023-07-21T18:34:04.182Z,57.83
2023-07-21T18:36:30.588Z,58.38
2023-07-21T18:38:57.014Z,58.34
2023-07-21T18:41:23.446Z,59.47
2023-07-21T18:43:51.345Z,56.94
2023-07-21T18:46:18.184Z,55.87
2023-07-21T18:48:44.590Z,55.10
2023-07-21T18:51:10.991Z,56.41
2023-07-21T18:53:37.367Z,56.45
2023-07-21T18:56:03.752Z,57.38
2023-07-21T18:58:30.136Z,54.07
2023-07-21T19:00:56.596Z,55.90
2023-07-21T19:03:22.993Z,58.13
2023-07-21T19:05:49.405Z,56.19
2023-07-21T19:08:15.865Z,59.70
2023-07-21T19:10:42.279Z,58.11
2023-07-21T19:13:08.726Z,58.57
2023-07-21T19:15:35.132Z,59.63
2023-07-21T19:18:01.559Z,59.58
2023-07-21T19:20:28.056Z,56.80
2023-07-21T19:22:54.475Z,58.29
2023-07-21T19:25:20.886Z,57.59
2023-07-21T19:27:47.274Z,60.45
2023-07-21T19:30:13.705Z,60.71
2023-07-21T19:32:40.166Z,58.22
2023-07-21T19:35:06.629Z,57.54
2023-07-21T19:37:33.026Z,58.89
2023-07-21T19:39:59.426Z,60.31
2023-07-21T19:42:25.812Z,58.16
2023-07-21T19:44:52.176Z,58.42
2023-07-21T19:47:18.612Z,58.73
2023-07-21T19:49:45.043Z,58.58
2023-07-21T19:52:11.428Z,57.27
2023-07-21T19:54:37.823Z,56.74
2023-07-21T19:57:04.206Z,57.64
2023-07-21T19:59:30.571Z,56.56
2023-07-21T20:01:57.011Z,56.17
2023-07-21T20:04:23.518Z,55.98
2023-07-21T20:06:49.965Z,55.23
2023-07-21T20:09:16.372Z,56.28
2023-07-21T20:11:42.903Z,56.44
2023-07-21T20:14:09.341Z,55.87
2023-07-21T20:16:35.920Z,56.47
2023-07-21T20:19:02.416Z,56.07
2023-07-21T20:21:28.933Z,56.12
2023-07-21T20:23:55.528Z,57.20
2023-07-21T20:26:22.012Z,55.03
2023-07-21T20:28:48.412Z,54.82
2023-07-21T20:31:14.845Z,54.73
2023-07-21T20:33:41.284Z,55.32
2023-07-21T20:36:07.687Z,54.88
2023-07-21T20:38:34.101Z,55.32
2023-07-21T20:41:00.525Z,55.18
2023-07-21T20:43:26.920Z,55.70
2023-07-21T20:45:53.368Z,55.19
2023-07-21T20:48:19.863Z,54.92
2023-07-21T20:50:46.279Z,55.22
2023-07-21T20:53:12.688Z,55.09
2023-07-21T20:55:39.154Z,54.96
2023-07-21T20:58:05.552Z,55.07
2023-07-21T21:00:31.966Z,55.00
2023-07-21T21:02:58.423Z,55.23
2023-07-21T21:05:24.859Z,54.92
2023-07-21T21:07:51.260Z,55.00
2023-07-21T21:10:17.657Z,55.24
2023-07-21T21:12:44.048Z,54.74
2023-07-21T21:15:10.527Z,54.67
2023-07-21T21:17:37.084Z,54.85
2023-07-21T21:20:03.575Z,54.82
2023-07-21T21:22:30.007Z,54.82
2023-07-21T21:24:56.449Z,54.91
2023-07-21T21:27:22.900Z,55.06
2023-07-21T21:29:49.292Z,54.65
2023-07-21T21:32:15.798Z,54.27
2023-07-21T21:34:42.326Z,54.06
2023-07-21T21:37:08.763Z,53.98
2023-07-21T21:39:35.164Z,54.44
2023-07-21T21:42:01.552Z,53.82
2023-07-21T21:44:27.960Z,53.68
2023-07-21T21:46:54.391Z,54.24
2023-07-21T21:49:20.896Z,53.97
2023-07-21T21:51:47.301Z,53.01
2023-07-21T21:54:13.690Z,53.26
2023-07-21T21:56:40.075Z,53.67
2023-07-21T21:59:06.523Z,53.46
2023-07-21T22:01:32.956Z,53.61
2023-07-21T22:03:59.490Z,54.43
2023-07-21T22:06:26.196Z,54.38
2023-07-21T22:08:52.773Z,54.57
2023-07-21T22:11:19.152Z,54.54
2023-07-21T22:13:45.545Z,54.60
2023-07-21T22:16:11.975Z,54.78
2023-07-21T22:18:38.450Z,54.57
2023-07-21T22:21:04.874Z,54.75
2023-07-21T22:23:31.283Z,54.37
2023-07-21T22:25:57.706Z,54.44
2023-07-21T22:28:24.100Z,54.32
2023-07-21T22:30:50.507Z,54.66
2023-07-21T22:33:17.023Z,55.10
2023-07-21T22:35:43.474Z,54.81
2023-07-21T22:38:09.874Z,55.08
2023-07-21T22:40:36.297Z,54.87
2023-07-21T22:43:02.723Z,54.84
2023-07-21T22:45:29.226Z,55.10
2023-07-21T22:47:55.704Z,55.01
2023-07-21T22:50:22.197Z,54.98
2023-07-21T22:52:48.687Z,54.93
2023-07-21T22:55:15.131Z,54.85
2023-07-21T22:57:41.578Z,54.92
2023-07-21T23:00:07.982Z,54.41
2023-07-21T23:02:34.488Z,54.61
2023-07-21T23:05:04.242Z,53.99
2023-07-21T23:07:30.746Z,54.08
2023-07-21T23:09:57.228Z,53.75
2023-07-21T23:12:23.689Z,53.81
2023-07-21T23:14:50.206Z,53.57
2023-07-21T23:17:16.709Z,53.20
2023-07-21T23:19:43.127Z,53.45
2023-07-21T23:22:09.527Z,53.21
2023-07-21T23:24:35.983Z,53.44
2023-07-21T23:27:02.525Z,52.47
2023-07-21T23:29:28.915Z,52.17
2023-07-21T23:31:55.306Z,51.84
2023-07-21T23:34:21.680Z,51.51
2023-07-21T23:36:48.105Z,51.31
2023-07-21T23:39:14.482Z,51.12
2023-07-21T23:41:40.889Z,51.44
2023-07-21T23:44:07.312Z,52.26
2023-07-21T23:46:33.722Z,52.17
2023-07-21T23:49:00.141Z,52.29
2023-07-21T23:51:26.584Z,52.30
2023-07-21T23:53:53.168Z,51.87
2023-07-21T23:56:19.621Z,52.13
2023-07-21T23:58:46.089Z,52.22
